Time;durP1;ratioP1;P1;durP2;ratioP2;P2;SDS_P1;SDS_P2;PMS_P1;PMS_P2;Temp;Humidity;BMP_temperature;BMP_pressure;BME280_temperature;BME280_humidity;BME280_pressure;Samples;Min_cycle;Max_cycle;Signal;HPM_P1;HPM_P2
2022/08/09 00:05:09;;;;;;;3.95;1.20;;;;;;;17.21;90.64;102631.34;20959376;28;20045;-64
2022/08/09 00:15:51;;;;;;;5.47;1.35;;;;;;;17.14;90.95;102630.06;20955638;28;20371;-61
2022/08/09 00:26:27;;;;;;;2.38;1.27;;;;;;;16.74;92.58;102630.84;20957372;28;20074;-62
2022/08/09 00:36:53;;;;;;;4.00;1.57;;;;;;;16.87;92.29;102623.91;20954491;28;20477;-63
2022/08/09 00:47:17;;;;;;;3.30;1.55;;;;;;;16.80;92.32;102625.19;20970856;28;20044;-62
2022/08/09 00:57:40;;;;;;;3.92;1.80;;;;;;;16.88;91.95;102622.94;20969152;28;20076;-62
2022/08/09 01:08:33;;;;;;;3.50;1.48;;;;;;;16.68;92.88;102619.81;20970384;28;20612;-62
2022/08/09 01:19:01;;;;;;;2.85;1.50;;;;;;;16.57;92.80;102617.88;20958800;28;20497;-62
2022/08/09 01:29:30;;;;;;;4.43;1.77;;;;;;;16.48;93.46;102618.41;20959327;28;20055;-61
2022/08/09 01:40:15;;;;;;;3.58;1.85;;;;;;;16.41;93.91;102628.56;20957530;28;20044;-60
2022/08/09 01:50:51;;;;;;;5.63;2.30;;;;;;;16.40;94.29;102635.59;20961897;28;20728;-60
2022/08/09 02:01:16;;;;;;;2.63;1.83;;;;;;;16.15;94.00;102629.25;20961499;28;20056;-60
2022/08/09 02:11:39;;;;;;;4.95;2.10;;;;;;;16.12;94.90;102632.88;20947286;28;20071;-60
2022/08/09 02:22:29;;;;;;;5.15;2.00;;;;;;;16.03;95.26;102640.47;20958193;28;20060;-60
2022/08/09 02:33:00;;;;;;;4.43;1.85;;;;;;;15.91;94.98;102643.81;20963750;28;20063;-60
2022/08/09 02:43:25;;;;;;;2.33;1.60;;;;;;;15.70;95.59;102637.16;20961220;28;20064;-60
2022/08/09 02:53:54;;;;;;;2.70;1.90;;;;;;;15.52;96.80;102635.56;20963372;28;20044;-60
2022/08/09 03:04:22;;;;;;;4.20;1.88;;;;;;;15.50;96.28;102627.75;20953893;28;20040;-62
2022/08/09 03:14:50;;;;;;;2.80;1.60;;;;;;;15.36;96.33;102629.47;20982074;28;20049;-63
2022/08/09 03:25:12;;;;;;;4.15;1.80;;;;;;;15.34;95.60;102633.13;20960291;28;20127;-61
2022/08/09 03:35:54;;;;;;;5.95;2.30;;;;;;;15.11;96.92;102631.72;20948632;28;20056;-63
2022/08/09 03:46:36;;;;;;;5.70;1.83;;;;;;;14.92;97.53;102625.78;20954630;28;20049;-63
2022/08/09 03:57:03;;;;;;;4.07;2.00;;;;;;;14.85;96.62;102624.38;20950858;28;20102;-61
2022/08/09 04:07:41;;;;;;;3.88;2.10;;;;;;;14.89;96.93;102625.94;20973337;28;20596;-63
2022/08/09 04:18:18;;;;;;;2.72;2.03;;;;;;;14.87;96.64;102626.94;20971075;28;20045;-63
2022/08/09 04:28:42;;;;;;;3.55;2.17;;;;;;;14.96;96.81;102636.94;20971493;28;20060;-63
2022/08/09 04:39:07;;;;;;;4.13;2.90;;;;;;;14.95;97.44;102644.00;20977093;28;20064;-62
2022/08/09 04:49:35;;;;;;;4.05;2.83;;;;;;;15.04;97.35;102646.13;20972606;28;20076;-61
2022/08/09 05:00:15;;;;;;;6.93;3.20;;;;;;;15.18;98.04;102654.09;20963192;28;20041;-61
2022/08/09 05:10:37;;;;;;;4.47;3.00;;;;;;;15.38;97.76;102671.44;20956190;28;20051;-61
2022/08/09 05:20:59;;;;;;;;;;;;;;;15.61;97.52;102674.47;20965642;28;20059;-62
2022/08/09 05:31:20;;;;;;;8.65;3.58;;;;;;;15.89;96.92;102685.13;20966198;28;20354;-63
2022/08/09 05:42:02;;;;;;;4.80;3.13;;;;;;;16.11;98.97;102690.88;20966729;28;20129;-62
2022/08/09 05:52:26;;;;;;;5.65;2.92;;;;;;;16.46;99.19;102688.75;20961427;28;20109;-61
2022/08/09 06:02:55;;;;;;;5.80;2.45;;;;;;;16.76;97.90;102692.19;20961598;28;20047;-62
2022/08/09 06:13:17;;;;;;;8.98;2.00;;;;;;;17.07;97.55;102702.53;20967282;28;20044;-62
2022/08/09 06:23:41;;;;;;;2.63;1.83;;;;;;;17.27;96.18;102720.63;20963812;28;20037;-61
2022/08/09 06:34:21;;;;;;;3.83;2.10;;;;;;;17.73;95.44;102724.72;20958074;28;20485;-63
2022/08/09 06:44:47;;;;;;;5.35;1.65;;;;;;;18.14;92.78;102722.88;20963076;28;20094;-61
2022/08/09 06:55:18;;;;;;;3.45;1.35;;;;;;;18.56;87.91;102729.66;20971260;28;20063;-62
2022/08/09 07:05:44;;;;;;;3.25;1.20;;;;;;;19.10;88.04;102741.72;20952982;28;20051;-62
2022/08/09 07:16:24;;;;;;;2.67;1.20;;;;;;;19.04;83.92;102746.59;20953436;28;20040;-62
2022/08/09 07:27:10;;;;;;;5.38;1.00;;;;;;;19.38;83.92;102740.69;20951305;28;20048;-61
2022/08/09 07:37:52;;;;;;;1.13;1.00;;;;;;;19.26;80.65;102746.84;20956152;28;20041;-61
2022/08/09 07:48:20;;;;;;;2.17;1.15;;;;;;;19.27;79.22;102749.38;20976960;28;20471;-62
2022/08/09 07:58:50;;;;;;;1.70;1.08;;;;;;;19.44;77.54;102751.69;20969447;28;20374;-61
2022/08/09 08:09:12;;;;;;;3.00;1.15;;;;;;;19.62;77.71;102760.97;20975865;28;20052;-61
2022/08/09 08:19:54;;;;;;;0.90;0.90;;;;;;;19.89;76.45;102762.44;20973669;28;20051;-62
2022/08/09 08:30:17;;;;;;;1.33;0.80;;;;;;;20.15;71.24;102763.25;20971267;28;20072;-61
2022/08/09 08:40:40;;;;;;;1.10;1.00;;;;;;;20.17;71.89;102764.81;20972608;28;20421;-62
2022/08/09 08:51:03;;;;;;;1.45;0.70;;;;;;;20.44;70.76;102757.47;20962763;28;20490;-62
2022/08/09 09:01:26;;;;;;;1.38;0.90;;;;;;;20.80;68.77;102760.88;20983638;28;20048;-62
2022/08/09 09:12:08;;;;;;;2.28;0.80;;;;;;;20.65;69.79;102772.63;20967115;28;20049;-63
2022/08/09 09:22:54;;;;;;;1.60;0.90;;;;;;;20.86;68.06;102783.44;20963942;28;20037;-63
2022/08/09 09:33:16;;;;;;;1.30;0.70;;;;;;;21.25;65.66;102773.22;20980701;28;20883;-63
2022/08/09 09:43:38;;;;;;;1.02;0.90;;;;;;;21.37;66.84;102772.28;20961494;28;20072;-62
2022/08/09 09:54:21;;;;;;;1.92;0.80;;;;;;;21.69;61.69;102763.47;20982921;28;20045;-63
2022/08/09 10:04:44;;;;;;;0.95;0.60;;;;;;;21.97;62.09;102751.47;20965005;28;20056;-63
2022/08/09 10:15:11;;;;;;;1.13;0.80;;;;;;;22.34;60.26;102744.81;20965803;28;20135;-63
2022/08/09 10:25:54;;;;;;;2.60;0.90;;;;;;;22.61;60.55;102744.19;20976923;28;20044;-62
2022/08/09 10:36:29;;;;;;;1.20;0.82;;;;;;;23.04;58.89;102744.88;20964050;28;20040;-63
2022/08/09 10:47:03;;;;;;;2.25;0.90;;;;;;;23.26;59.24;102731.44;20938242;28;20041;-63
2022/08/09 10:57:45;;;;;;;5.22;0.68;;;;;;;23.65;56.76;102730.56;20946516;28;20540;-62
2022/08/09 11:08:51;;;;;;;1.50;0.80;;;;;;;23.82;55.89;102725.44;20948122;28;20614;-62
2022/08/09 11:19:34;;;;;;;;;;;;;;;23.70;55.21;102723.03;20959078;28;20131;-64
2022/08/09 11:30:22;;;;;;;2.67;0.80;;;;;;;24.47;53.05;102718.47;20957968;28;19920;-64
2022/08/09 11:40:55;;;;;;;1.70;0.70;;;;;;;24.56;51.83;102706.13;20971720;28;20040;-63
2022/08/09 11:51:22;;;;;;;0.63;0.60;;;;;;;24.94;50.25;102701.53;20959477;28;20044;-63
2022/08/09 12:02:11;;;;;;;1.00;0.60;;;;;;;24.83;49.35;102699.03;20960620;28;20049;-63
2022/08/09 12:12:53;;;;;;;0.40;0.40;;;;;;;24.86;49.02;102692.56;20952756;28;20036;-63
2022/08/09 12:23:15;;;;;;;3.00;0.82;;;;;;;25.26;48.37;102685.97;20958408;28;20058;-63
2022/08/09 12:33:45;;;;;;;2.47;0.63;;;;;;;24.94;52.21;102674.00;20955061;28;20052;-63
2022/08/09 12:44:20;;;;;;;2.13;1.00;;;;;;;24.10;53.78;102670.50;20958596;28;20082;-64
2022/08/09 12:54:48;;;;;;;4.20;0.90;;;;;;;24.39;54.29;102670.31;20966113;28;20048;-63
2022/08/09 13:05:45;;;;;;;2.20;1.10;;;;;;;24.34;53.31;102674.41;20967206;28;20489;-64
2022/08/09 13:16:50;;;;;;;2.35;1.00;;;;;;;24.44;51.69;102660.06;20952867;28;20056;-63
2022/08/09 13:27:26;;;;;;;1.25;1.10;;;;;;;24.12;55.79;102668.53;20946076;28;20064;-63
2022/08/09 13:37:50;;;;;;;1.42;1.00;;;;;;;24.15;58.60;102657.59;20946171;28;20048;-63
2022/08/09 13:48:13;;;;;;;2.67;1.17;;;;;;;24.16;57.86;102659.28;20947687;28;20041;-63
2022/08/09 13:58:36;;;;;;;1.52;1.10;;;;;;;24.07;58.82;102654.78;20945478;28;20131;-63
2022/08/09 14:08:58;;;;;;;1.83;0.93;;;;;;;24.14;58.19;102654.06;20945398;28;20040;-62
2022/08/09 14:19:20;;;;;;;4.43;1.00;;;;;;;24.06;58.49;102667.28;20948520;28;20048;-62
2022/08/09 14:29:43;;;;;;;1.25;0.90;;;;;;;24.09;58.95;102682.13;20945843;28;20047;-62
2022/08/09 14:40:24;;;;;;;2.25;1.00;;;;;;;23.98;57.92;102677.78;20946643;28;20044;-63
2022/08/09 14:51:06;;;;;;;1.08;0.90;;;;;;;23.82;59.17;102671.34;20937602;28;20055;-62
2022/08/09 15:01:29;;;;;;;1.92;0.70;;;;;;;24.04;57.92;102671.91;20954581;28;20136;-63
2022/08/09 15:11:52;;;;;;;8.05;1.10;;;;;;;23.99;58.16;102665.31;20944138;28;20044;-63
2022/08/09 15:22:14;;;;;;;3.33;0.90;;;;;;;23.84;57.56;102656.06;20949590;28;20393;-63
2022/08/09 15:32:38;;;;;;;2.80;0.90;;;;;;;23.85;58.25;102649.75;20942820;28;20036;-63
2022/08/09 15:43:00;;;;;;;3.20;0.95;;;;;;;23.76;60.00;102639.88;20945396;28;20542;-62
2022/08/09 15:53:23;;;;;;;1.17;0.90;;;;;;;23.63;60.56;102637.50;20935602;28;20053;-67
2022/08/09 16:04:05;;;;;;;1.67;0.90;;;;;;;23.60;62.20;102634.25;20971479;28;20410;-67
2022/08/09 16:14:34;;;;;;;1.70;0.90;;;;;;;23.91;61.96;102630.50;20957372;28;20417;-67
2022/08/09 16:24:55;;;;;;;1.17;0.90;;;;;;;24.07;62.60;102634.31;20956902;28;20055;-67
2022/08/09 16:35:22;;;;;;;0.82;0.82;;;;;;;24.90;60.36;102636.06;20956291;28;20660;-64
2022/08/09 16:46:04;;;;;;;2.78;0.68;;;;;;;24.57;61.71;102649.97;20955186;28;20045;-64
2022/08/09 16:56:26;;;;;;;1.90;0.80;;;;;;;24.40;61.73;102642.66;20955155;28;20051;-64
2022/08/09 17:06:51;;;;;;;0.88;0.60;;;;;;;23.70;62.94;102653.78;20935491;28;20048;-64
2022/08/09 17:17:32;;;;;;;1.67;0.80;;;;;;;23.34;64.11;102657.06;20943395;28;20041;-64
2022/08/09 17:28:12;;;;;;;0.97;0.60;;;;;;;23.23;64.69;102672.28;20948672;28;20044;-63
2022/08/09 17:38:34;;;;;;;1.27;0.50;;;;;;;22.92;64.04;102666.13;20956987;28;20067;-63
2022/08/09 17:48:59;;;;;;;0.68;0.47;;;;;;;22.91;63.76;102656.44;20956994;28;20044;-63
2022/08/09 17:59:21;;;;;;;0.77;0.60;;;;;;;22.54;65.02;102676.56;20956758;28;20504;-63
2022/08/09 18:09:58;;;;;;;1.83;0.70;;;;;;;22.35;66.50;102672.09;20925623;28;20048;-64
2022/08/09 18:20:25;;;;;;;0.68;0.40;;;;;;;21.74;68.56;102675.47;20961442;28;20060;-62
2022/08/09 18:31:07;;;;;;;1.45;0.50;;;;;;;21.57;70.12;102674.19;20947795;28;20052;-63
2022/08/09 18:41:29;;;;;;;0.45;0.38;;;;;;;21.42;71.26;102658.59;20960185;28;20041;-63
2022/08/09 18:51:55;;;;;;;1.10;0.57;;;;;;;21.42;72.15;102642.69;20955425;28;20110;-63
2022/08/09 19:02:19;;;;;;;1.65;0.70;;;;;;;21.18;73.33;102644.66;20956671;28;20563;-64
2022/08/09 19:12:51;;;;;;;0.50;0.50;;;;;;;20.93;74.28;102655.53;20944820;28;20052;-64
2022/08/09 19:23:32;;;;;;;1.27;0.57;;;;;;;20.78;76.06;102653.19;20958955;28;20075;-63
2022/08/09 19:34:14;;;;;;;2.05;0.55;;;;;;;20.76;76.47;102663.94;20954330;28;20448;-63
2022/08/09 19:44:43;;;;;;;2.75;0.65;;;;;;;20.49;77.85;102666.06;20955528;28;20037;-62
2022/08/09 19:55:12;;;;;;;0.63;0.60;;;;;;;20.43;78.68;102682.44;20916398;28;20132;-63
2022/08/09 20:05:35;;;;;;;1.17;0.73;;;;;;;20.21;80.33;102685.97;20943828;28;20131;-62
2022/08/09 20:16:11;;;;;;;1.75;0.70;;;;;;;20.20;81.00;102694.88;20965642;28;20044;-63
2022/08/09 20:26:52;;;;;;;0.73;0.70;;;;;;;20.13;82.06;102697.16;20952780;28;20045;-62
2022/08/09 20:37:17;;;;;;;0.70;0.70;;;;;;;19.88;82.81;102704.34;20953968;28;20055;-63
2022/08/09 20:47:43;;;;;;;1.77;0.90;;;;;;;19.95;82.86;102700.25;20959252;28;20093;-62
2022/08/09 20:58:09;;;;;;;0.95;0.85;;;;;;;19.86;83.74;102695.66;20969612;28;20084;-62
2022/08/09 21:08:42;;;;;;;1.30;1.10;;;;;;;19.82;83.42;102700.34;20983969;28;20390;-63
2022/08/09 21:19:04;;;;;;;4.20;1.00;;;;;;;19.58;84.93;102701.28;20969787;28;20073;-62
2022/08/09 21:29:45;;;;;;;1.27;1.02;;;;;;;19.66;85.51;102704.19;20972694;28;20037;-63
2022/08/09 21:40:10;;;;;;;1.92;1.13;;;;;;;19.69;85.71;102699.53;20949672;28;20062;-63
2022/08/09 21:50:42;;;;;;;2.40;1.15;;;;;;;19.53;86.95;102676.94;20982695;28;20079;-62
2022/08/09 22:01:11;;;;;;;2.38;1.30;;;;;;;19.50;87.70;102678.00;20985863;28;20048;-63
2022/08/09 22:11:53;;;;;;;2.40;1.40;;;;;;;19.36;88.43;102679.94;20971361;28;20814;-63
2022/08/09 22:22:34;;;;;;;2.75;1.42;;;;;;;19.33;88.84;102674.91;20965862;28;20585;-63
2022/08/09 22:32:57;;;;;;;3.97;1.73;;;;;;;19.42;87.90;102679.50;20955990;28;20032;-63
2022/08/09 22:43:19;;;;;;;3.35;1.90;;;;;;;19.30;88.53;102677.75;20960674;28;20440;-63
2022/08/09 22:54:01;;;;;;;4.95;2.03;;;;;;;19.10;90.43;102673.00;20963138;28;20046;-63
2022/08/09 23:04:23;;;;;;;2.28;2.08;;;;;;;19.05;90.93;102667.19;20962007;28;20044;-63
2022/08/09 23:14:46;;;;;;;4.22;2.20;;;;;;;19.03;90.60;102670.88;20934218;28;20066;-63
2022/08/09 23:25:14;;;;;;;4.70;2.30;;;;;;;18.98;90.86;102665.94;20961943;28;20531;-64
2022/08/09 23:35:36;;;;;;;4.15;2.30;;;;;;;18.70;92.65;102674.09;20961507;28;20710;-63
2022/08/09 23:46:18;;;;;;;9.65;2.35;;;;;;;18.68;92.79;102672.50;20957086;28;20064;-63
2022/08/09 23:56:39;;;;;;;4.20;2.60;;;;;;;18.44;94.59;102667.09;20960774;28;20052;-63
